Time;durP1;ratioP1;P1;durP2;ratioP2;P2;SDS_P1;SDS_P2;PMS_P1;PMS_P2;Temp;Humidity;BMP_temperature;BMP_pressure;BME280_temperature;BME280_humidity;BME280_pressure;Samples;Min_cycle;Max_cycle;Signal;HPM_P1;HPM_P2
2021/11/10 00:00:36;;;;;;;9.90;8.10;;;7.50;99.90;;;;;;5007332;28;20234;-73
2021/11/10 00:03:04;;;;;;;10.43;8.43;;;7.60;99.90;;;;;;5007512;28;20287;-72
2021/11/10 00:05:30;;;;;;;9.73;8.23;;;7.50;99.90;;;;;;5007034;28;20683;-72
2021/11/10 00:07:57;;;;;;;10.17;8.30;;;7.50;99.90;;;;;;5007370;28;20202;-72
2021/11/10 00:10:24;;;;;;;8.53;7.73;;;7.50;99.90;;;;;;5007138;28;20230;-72
2021/11/10 00:12:50;;;;;;;8.57;7.50;;;7.50;99.90;;;;;;5006955;28;20680;-72
2021/11/10 00:15:17;;;;;;;9.17;8.07;;;7.50;99.90;;;;;;5007530;28;20258;-72
2021/11/10 00:17:44;;;;;;;8.40;7.70;;;7.50;99.90;;;;;;5007233;28;20209;-72
2021/11/10 00:20:12;;;;;;;9.37;8.43;;;7.50;99.90;;;;;;5007193;28;20268;-72
2021/11/10 00:22:40;;;;;;;9.47;8.47;;;7.50;99.90;;;;;;5007122;28;20255;-72
2021/11/10 00:25:08;;;;;;;8.83;8.00;;;7.40;99.90;;;;;;5006607;28;20240;-72
2021/11/10 00:27:34;;;;;;;8.20;7.50;;;7.40;99.90;;;;;;5006618;28;20214;-72
2021/11/10 00:30:01;;;;;;;8.70;7.90;;;7.40;99.90;;;;;;5006934;28;20248;-72
2021/11/10 00:32:27;;;;;;;9.53;8.20;;;7.40;99.90;;;;;;5007012;28;20201;-72
2021/11/10 00:34:54;;;;;;;11.80;8.60;;;7.40;99.90;;;;;;5006975;28;20255;-72
2021/11/10 00:37:22;;;;;;;10.30;8.20;;;7.40;99.90;;;;;;5006809;28;20266;-72
2021/11/10 00:39:49;;;;;;;8.90;8.00;;;7.40;99.90;;;;;;5006951;28;20209;-72
2021/11/10 00:42:15;;;;;;;8.57;7.70;;;7.30;99.90;;;;;;5006932;28;20559;-72
2021/11/10 00:44:42;;;;;;;11.03;8.37;;;7.30;99.90;;;;;;5006683;28;20282;-71
2021/11/10 00:47:09;;;;;;;9.07;8.23;;;7.30;99.90;;;;;;5006780;28;20266;-71
2021/11/10 00:49:35;;;;;;;9.33;7.90;;;7.30;99.90;;;;;;5006640;28;20244;-70
2021/11/10 00:52:02;;;;;;;9.43;8.23;;;7.30;99.90;;;;;;5006547;28;20269;-70
2021/11/10 00:54:32;;;;;;;9.20;8.37;;;7.30;99.90;;;;;;5006249;28;20985;-71
2021/11/10 00:56:58;;;;;;;10.30;8.37;;;7.30;99.90;;;;;;5006794;28;20210;-71
2021/11/10 00:59:25;;;;;;;9.07;8.17;;;7.30;99.90;;;;;;5006319;28;20256;-71
2021/11/10 01:01:52;;;;;;;11.50;7.80;;;7.30;99.90;;;;;;5006245;28;20799;-71
2021/11/10 01:04:19;;;;;;;9.33;8.43;;;7.30;99.90;;;;;;5006539;28;20209;-71
2021/11/10 01:06:45;;;;;;;10.40;8.37;;;7.30;99.90;;;;;;5006112;28;20720;-71
2021/11/10 01:09:16;;;;;;;12.73;8.77;;;7.30;99.90;;;;;;5006389;28;20205;-71
2021/11/10 01:11:45;;;;;;;9.20;8.30;;;7.30;99.90;;;;;;5005895;28;20707;-71
2021/11/10 01:14:12;;;;;;;9.77;8.87;;;7.30;99.90;;;;;;5006271;28;20247;-71
2021/11/10 01:16:39;;;;;;;9.70;8.30;;;7.10;99.90;;;;;;5005644;28;21051;-71
2021/11/10 01:19:06;;;;;;;9.17;8.30;;;7.20;99.90;;;;;;5006445;28;20229;-71
2021/11/10 01:21:32;;;;;;;9.63;8.67;;;7.20;99.90;;;;;;5005555;28;20748;-71
2021/11/10 01:23:59;;;;;;;9.40;8.33;;;7.20;99.90;;;;;;5006254;28;20258;-71
2021/11/10 01:26:27;;;;;;;9.90;8.90;;;7.20;99.90;;;;;;5006132;28;20245;-73
2021/11/10 01:28:55;;;;;;;9.03;8.13;;;7.20;99.90;;;;;;5005654;28;20205;-72
2021/11/10 01:31:21;;;;;;;10.33;9.33;;;7.10;99.90;;;;;;5005727;28;20849;-72
2021/11/10 01:33:48;;;;;;;10.53;8.77;;;7.10;99.90;;;;;;5005574;28;20643;-72
2021/11/10 01:36:15;;;;;;;9.23;8.23;;;7.10;99.90;;;;;;5005812;28;20258;-72
2021/11/10 01:38:41;;;;;;;10.53;8.57;;;7.10;99.90;;;;;;5005632;28;20263;-72
2021/11/10 01:41:08;;;;;;;9.77;8.80;;;7.10;99.90;;;;;;5005596;28;20326;-72
2021/11/10 01:43:36;;;;;;;9.40;8.50;;;7.10;99.90;;;;;;5005887;28;20241;-72
2021/11/10 01:46:04;;;;;;;10.23;8.80;;;7.10;99.90;;;;;;5005876;28;20206;-72
2021/11/10 01:48:31;;;;;;;10.57;9.50;;;7.10;99.90;;;;;;5005919;28;20209;-72
2021/11/10 01:50:58;;;;;;;9.67;8.43;;;7.00;99.90;;;;;;5005802;28;20742;-72
2021/11/10 01:53:25;;;;;;;9.70;8.70;;;7.00;99.90;;;;;;5005564;28;20255;-72
2021/11/10 01:55:52;;;;;;;9.00;8.10;;;7.00;99.90;;;;;;5005781;28;20236;-72
2021/11/10 01:58:19;;;;;;;9.37;8.57;;;7.00;99.90;;;;;;5005722;28;20660;-72
2021/11/10 02:00:46;;;;;;;9.47;8.57;;;7.00;99.90;;;;;;5005246;28;20245;-71
2021/11/10 02:03:14;;;;;;;9.03;8.23;;;6.90;99.90;;;;;;5005590;28;20230;-73
2021/11/10 02:05:41;;;;;;;9.40;8.40;;;6.90;99.90;;;;;;5005269;28;20262;-73
2021/11/10 02:08:08;;;;;;;9.07;8.20;;;6.90;99.90;;;;;;5005543;28;20317;-72
2021/11/10 02:10:35;;;;;;;9.40;8.50;;;6.90;99.90;;;;;;5005438;28;20233;-72
2021/11/10 02:13:03;;;;;;;9.80;8.80;;;6.80;99.90;;;;;;5005452;28;20569;-72
2021/11/10 02:15:30;;;;;;;10.27;8.90;;;6.80;99.90;;;;;;5021903;28;20227;-72
2021/11/10 02:17:59;;;;;;;10.10;9.10;;;6.80;99.90;;;;;;5025615;28;20285;-72
2021/11/10 02:20:31;;;;;;;9.90;8.90;;;6.80;99.90;;;;;;5024941;28;20929;-72
2021/11/10 02:22:59;;;;;;;10.43;8.83;;;6.80;99.90;;;;;;5025475;28;20236;-72
2021/11/10 02:25:27;;;;;;;10.27;9.20;;;6.80;99.90;;;;;;5025286;28;20261;-72
2021/11/10 02:27:54;;;;;;;10.50;8.80;;;6.80;99.90;;;;;;5025168;28;20284;-71
2021/11/10 02:30:21;;;;;;;9.90;8.90;;;6.70;99.90;;;;;;5025043;28;20309;-71
2021/11/10 02:32:50;;;;;;;10.37;9.33;;;6.70;99.90;;;;;;5024847;28;20234;-71
2021/11/10 02:35:18;;;;;;;10.53;9.50;;;6.70;99.90;;;;;;5024838;28;20255;-71
2021/11/10 02:37:48;;;;;;;10.33;9.07;;;6.70;99.90;;;;;;5024946;28;20209;-71
2021/11/10 02:40:16;;;;;;;10.87;9.40;;;6.70;99.90;;;;;;5025075;28;20257;-71
2021/11/10 02:42:43;;;;;;;10.97;9.80;;;6.70;99.90;;;;;;5024703;28;20229;-71
2021/11/10 02:45:11;;;;;;;10.80;9.67;;;6.70;99.90;;;;;;5024778;28;20209;-71
2021/11/10 02:47:38;;;;;;;10.70;9.70;;;6.70;99.90;;;;;;5024954;28;20204;-71
2021/11/10 02:50:05;;;;;;;10.53;9.43;;;6.70;99.90;;;;;;5027236;28;20614;-71
2021/11/10 02:52:32;;;;;;;11.37;9.40;;;6.60;99.90;;;;;;5028073;28;20281;-71
2021/11/10 02:54:59;;;;;;;10.63;9.63;;;6.60;99.90;;;;;;5028391;28;20216;-71
2021/11/10 02:57:28;;;;;;;10.03;9.10;;;6.60;99.90;;;;;;5028049;28;20224;-71
2021/11/10 02:59:55;;;;;;;10.60;9.37;;;6.60;99.90;;;;;;5028184;28;20237;-71
2021/11/10 03:02:25;;;;;;;11.47;10.00;;;6.60;99.90;;;;;;5028108;28;20260;-71
2021/11/10 03:04:52;;;;;;;10.37;9.20;;;6.60;99.90;;;;;;5028138;28;20205;-71
2021/11/10 03:07:19;;;;;;;10.17;9.17;;;6.60;99.90;;;;;;5027998;28;20209;-71
2021/11/10 03:09:48;;;;;;;11.47;9.93;;;6.60;99.90;;;;;;5027768;28;20623;-71
2021/11/10 03:12:16;;;;;;;10.93;9.83;;;6.60;99.90;;;;;;5028024;28;20237;-71
2021/11/10 03:14:45;;;;;;;11.07;9.73;;;6.60;99.90;;;;;;5027715;28;20245;-71
2021/11/10 03:17:15;;;;;;;11.63;9.53;;;6.50;99.90;;;;;;5027903;28;20614;-73
2021/11/10 03:19:42;;;;;;;10.10;9.17;;;6.50;99.90;;;;;;5019910;28;20313;-73
2021/11/10 03:22:11;;;;;;;10.70;9.60;;;6.40;99.90;;;;;;5018989;28;20688;-73
2021/11/10 03:24:38;;;;;;;10.97;9.13;;;6.40;99.90;;;;;;5016459;28;20225;-70
2021/11/10 03:27:05;;;;;;;9.67;8.73;;;6.40;99.90;;;;;;5019766;28;20202;-71
2021/11/10 03:29:32;;;;;;;10.80;9.23;;;6.30;99.90;;;;;;5012157;28;20298;-71
2021/11/10 03:32:00;;;;;;;10.50;9.40;;;6.30;99.90;;;;;;5019310;28;20235;-71
2021/11/10 03:34:27;;;;;;;9.90;8.93;;;6.30;99.90;;;;;;5024125;28;20250;-70
2021/11/10 03:36:54;;;;;;;10.90;8.27;;;6.30;99.90;;;;;;5023437;28;20732;-70
2021/11/10 03:39:20;;;;;;;10.87;9.50;;;6.30;99.90;;;;;;5023788;28;20274;-70
2021/11/10 03:41:47;;;;;;;9.50;8.60;;;6.30;99.90;;;;;;5023582;28;20253;-70
2021/11/10 03:44:14;;;;;;;11.67;8.90;;;6.20;99.90;;;;;;5023569;28;20392;-71
2021/11/10 03:46:42;;;;;;;10.90;9.87;;;6.20;99.90;;;;;;5023675;28;20213;-71
2021/11/10 03:49:10;;;;;;;11.03;9.93;;;6.30;99.90;;;;;;5023531;28;20269;-71
2021/11/10 03:51:38;;;;;;;10.33;9.33;;;6.30;99.90;;;;;;5021264;28;20514;-70
2021/11/10 03:54:05;;;;;;;9.97;8.97;;;6.30;99.90;;;;;;5023427;28;20296;-70
2021/11/10 03:56:31;;;;;;;9.53;8.63;;;6.20;99.90;;;;;;5023641;28;20273;-70
2021/11/10 03:58:58;;;;;;;9.47;8.57;;;6.20;99.90;;;;;;5023896;28;20262;-70
2021/11/10 04:01:25;;;;;;;9.60;8.70;;;6.20;99.90;;;;;;5023134;28;20956;-70
2021/11/10 04:03:51;;;;;;;9.33;8.40;;;6.30;99.90;;;;;;5023479;28;20212;-71
2021/11/10 04:06:20;;;;;;;9.33;8.33;;;6.30;99.90;;;;;;5017545;28;20205;-70
2021/11/10 04:08:46;;;;;;;9.87;8.87;;;6.20;99.90;;;;;;5003140;28;20252;-71
2021/11/10 04:11:13;;;;;;;11.83;9.10;;;6.20;99.90;;;;;;5013007;28;20274;-71
2021/11/10 04:13:40;;;;;;;9.53;8.47;;;6.20;99.90;;;;;;5011251;28;20306;-79
2021/11/10 04:16:09;;;;;;;9.73;8.73;;;6.20;99.90;;;;;;5004750;28;20238;-71
2021/11/10 04:18:35;;;;;;;9.30;8.30;;;6.20;99.90;;;;;;5006017;28;20228;-71
2021/11/10 04:21:03;;;;;;;10.27;8.60;;;6.20;99.90;;;;;;5005592;28;20262;-71
2021/11/10 04:23:32;;;;;;;11.73;8.60;;;6.20;99.90;;;;;;5006569;28;20209;-71
2021/11/10 04:26:00;;;;;;;13.60;8.80;;;6.20;99.90;;;;;;5006805;28;20792;-71
2021/11/10 04:28:27;;;;;;;9.90;8.90;;;6.10;99.90;;;;;;5006851;28;20206;-71
2021/11/10 04:30:54;;;;;;;9.73;8.73;;;6.10;99.90;;;;;;5006786;28;20254;-71
2021/11/10 04:33:22;;;;;;;10.17;9.00;;;6.10;99.90;;;;;;5006477;28;20718;-71
2021/11/10 04:35:49;;;;;;;8.90;8.00;;;6.10;99.90;;;;;;5007035;28;20658;-71
2021/11/10 04:38:17;;;;;;;9.47;8.50;;;6.10;99.90;;;;;;5006759;28;20190;-71
2021/11/10 04:40:46;;;;;;;10.03;9.03;;;6.00;99.90;;;;;;5006802;28;20222;-71
2021/11/10 04:43:12;;;;;;;11.07;8.90;;;6.00;99.90;;;;;;5006735;28;20286;-71
2021/11/10 04:45:40;;;;;;;9.67;8.77;;;6.00;99.90;;;;;;5006844;28;20742;-71
2021/11/10 04:48:07;;;;;;;10.17;9.17;;;6.00;99.90;;;;;;5006775;28;20216;-71
2021/11/10 04:50:35;;;;;;;10.03;9.00;;;6.00;99.90;;;;;;5006954;28;20209;-71
2021/11/10 04:53:02;;;;;;;9.90;8.87;;;6.00;99.90;;;;;;5006484;28;20233;-71
2021/11/10 04:55:29;;;;;;;10.10;9.10;;;6.00;99.90;;;;;;5006684;28;20263;-71
2021/11/10 04:57:58;;;;;;;9.90;8.90;;;6.00;99.90;;;;;;5006593;28;20244;-71
2021/11/10 05:00:25;;;;;;;9.73;8.40;;;6.00;99.90;;;;;;5006333;28;20233;-71
2021/11/10 05:02:52;;;;;;;10.10;8.70;;;6.00;99.90;;;;;;5006063;28;20265;-71
2021/11/10 05:05:18;;;;;;;9.97;8.97;;;6.00;99.90;;;;;;5006212;28;20606;-70
2021/11/10 05:07:47;;;;;;;9.57;8.67;;;6.00;99.90;;;;;;5006029;28;20217;-71
2021/11/10 05:10:14;;;;;;;10.70;8.33;;;5.90;99.90;;;;;;5006372;28;20213;-71
2021/11/10 05:12:41;;;;;;;9.63;8.53;;;5.90;99.90;;;;;;5005243;28;20290;-71
2021/11/10 05:15:12;;;;;;;9.27;8.37;;;5.90;99.90;;;;;;5006522;28;20306;-71
2021/11/10 05:17:39;;;;;;;9.87;8.87;;;6.00;99.90;;;;;;5006277;28;20225;-71
2021/11/10 05:20:07;;;;;;;10.80;8.60;;;5.90;99.90;;;;;;5006372;28;20245;-71
2021/11/10 05:22:33;;;;;;;9.67;8.50;;;5.90;99.90;;;;;;5005952;28;20241;-71
2021/11/10 05:25:00;;;;;;;10.93;9.00;;;5.90;99.90;;;;;;5005875;28;20975;-71
2021/11/10 05:27:27;;;;;;;9.67;8.77;;;5.90;99.90;;;;;;5006130;28;20305;-71
2021/11/10 05:29:54;;;;;;;10.70;8.77;;;5.90;99.90;;;;;;5006159;28;20255;-71
2021/11/10 05:32:22;;;;;;;10.07;8.97;;;5.90;99.90;;;;;;5005697;28;20730;-71
2021/11/10 05:34:50;;;;;;;10.47;9.40;;;5.90;99.90;;;;;;5006214;28;20236;-71
2021/11/10 05:37:17;;;;;;;11.03;9.20;;;5.80;99.90;;;;;;5006123;28;20233;-71
2021/11/10 05:39:43;;;;;;;9.43;8.43;;;5.80;99.90;;;;;;5006071;28;20274;-71
2021/11/10 05:42:10;;;;;;;9.13;8.23;;;5.80;99.90;;;;;;5006091;28;20225;-71
2021/11/10 05:44:37;;;;;;;8.90;8.00;;;5.80;99.90;;;;;;5006082;28;20365;-71
2021/11/10 05:47:04;;;;;;;9.80;8.80;;;5.80;99.90;;;;;;5005779;28;20243;-71
2021/11/10 05:49:32;;;;;;;9.63;8.73;;;5.80;99.90;;;;;;5005378;28;20545;-71
2021/11/10 05:51:58;;;;;;;11.73;8.70;;;5.80;99.90;;;;;;5005616;28;20270;-71
2021/11/10 05:54:25;;;;;;;9.50;8.30;;;5.70;99.90;;;;;;5005416;28;20214;-71
2021/11/10 05:56:52;;;;;;;9.43;8.33;;;5.70;99.90;;;;;;5005488;28;20274;-71
2021/11/10 05:59:18;;;;;;;10.53;9.40;;;5.70;99.90;;;;;;5005536;28;20251;-71
2021/11/10 06:01:45;;;;;;;16.90;12.97;;;5.70;99.90;;;;;;5004940;28;20279;-71
2021/11/10 06:04:12;;;;;;;24.90;16.50;;;5.60;99.90;;;;;;5005704;28;20221;-71
2021/11/10 06:06:40;;;;;;;22.53;16.67;;;5.70;99.90;;;;;;5005442;28;20291;-71
2021/11/10 06:09:07;;;;;;;27.10;19.40;;;5.60;99.90;;;;;;5005633;28;20210;-71
2021/11/10 06:11:34;;;;;;;17.30;12.93;;;5.60;99.90;;;;;;5005620;28;20236;-71
2021/11/10 06:14:01;;;;;;;17.07;12.90;;;5.60;99.90;;;;;;5005830;28;20201;-71
2021/11/10 06:16:28;;;;;;;14.67;10.80;;;5.70;99.90;;;;;;5015599;28;20205;-71
2021/11/10 06:18:55;;;;;;;12.90;10.33;;;5.70;99.90;;;;;;5025383;28;20292;-71
2021/11/10 06:21:22;;;;;;;11.63;9.80;;;5.60;99.90;;;;;;5025259;28;20216;-71
2021/11/10 06:23:50;;;;;;;10.00;9.00;;;5.70;99.90;;;;;;5025724;28;20247;-71
2021/11/10 06:26:17;;;;;;;12.00;9.00;;;5.70;99.90;;;;;;5028799;28;20229;-70
2021/11/10 06:28:43;;;;;;;10.03;9.03;;;5.70;99.90;;;;;;5028568;28;20205;-71
2021/11/10 06:31:10;;;;;;;11.10;9.10;;;5.70;99.90;;;;;;5028607;28;20204;-71
2021/11/10 06:33:37;;;;;;;10.07;9.07;;;5.80;99.90;;;;;;5027545;28;20272;-71
2021/11/10 06:36:04;;;;;;;9.70;8.80;;;5.80;99.90;;;;;;5028883;28;20246;-71
2021/11/10 06:38:31;;;;;;;10.20;9.20;;;5.80;99.90;;;;;;5028207;28;20209;-71
2021/11/10 06:40:59;;;;;;;9.67;8.67;;;5.70;99.90;;;;;;5028490;28;20293;-70
2021/11/10 06:43:26;;;;;;;13.07;9.43;;;5.80;99.90;;;;;;5027851;28;20703;-71
2021/11/10 06:45:53;;;;;;;10.33;9.33;;;5.70;99.90;;;;;;5028432;28;20211;-70
2021/11/10 06:48:20;;;;;;;9.17;8.20;;;5.80;99.90;;;;;;5028437;28;20280;-70
2021/11/10 06:50:47;;;;;;;11.47;9.47;;;5.80;99.90;;;;;;5028203;28;20235;-70
2021/11/10 06:53:14;;;;;;;10.03;9.03;;;5.80;99.90;;;;;;5027564;28;20779;-71
2021/11/10 06:55:41;;;;;;;10.23;9.30;;;5.80;99.90;;;;;;5027945;28;20201;-71
2021/11/10 06:58:09;;;;;;;10.20;9.20;;;5.80;99.90;;;;;;5028443;28;20205;-70
2021/11/10 07:00:36;;;;;;;10.83;9.70;;;5.80;99.90;;;;;;5027508;28;20286;-71
2021/11/10 07:03:02;;;;;;;12.67;10.07;;;5.80;99.90;;;;;;5028154;28;20277;-70
2021/11/10 07:05:29;;;;;;;9.93;9.00;;;5.80;99.90;;;;;;5028056;28;20261;-71
2021/11/10 07:07:56;;;;;;;9.37;8.40;;;5.80;99.90;;;;;;5027822;28;20216;-71
2021/11/10 07:10:22;;;;;;;10.63;8.83;;;5.70;99.90;;;;;;5028238;28;20204;-71
2021/11/10 07:12:49;;;;;;;11.00;9.67;;;5.80;99.90;;;;;;5027909;28;20236;-71
2021/11/10 07:15:17;;;;;;;12.13;8.63;;;5.70;99.90;;;;;;5027731;28;20676;-71
2021/11/10 07:17:43;;;;;;;10.70;9.20;;;5.70;99.90;;;;;;5027308;28;20741;-71
2021/11/10 07:20:11;;;;;;;11.57;9.83;;;5.70;99.90;;;;;;5028129;28;20209;-71
2021/11/10 07:22:38;;;;;;;11.23;9.00;;;5.70;99.90;;;;;;5027234;28;20686;-71
2021/11/10 07:25:06;;;;;;;10.70;9.30;;;5.80;99.90;;;;;;5027699;28;20201;-71
2021/11/10 07:27:33;;;;;;;10.43;9.40;;;5.80;99.90;;;;;;5027503;28;20257;-71
2021/11/10 07:30:00;;;;;;;13.63;10.07;;;5.90;99.90;;;;;;5028008;28;20209;-71
2021/11/10 07:32:28;;;;;;;10.77;9.27;;;5.90;99.90;;;;;;5027234;28;20301;-70
2021/11/10 07:34:55;;;;;;;10.63;9.53;;;5.90;99.90;;;;;;5026981;28;20232;-71
2021/11/10 07:37:21;;;;;;;11.60;9.30;;;5.90;99.90;;;;;;5027065;28;20228;-71
2021/11/10 07:39:48;;;;;;;11.27;9.90;;;6.00;99.90;;;;;;5027624;28;20233;-71
2021/11/10 07:42:15;;;;;;;10.77;9.40;;;6.00;99.90;;;;;;5027331;27;20259;-71
2021/11/10 07:44:42;;;;;;;10.73;9.03;;;6.10;99.90;;;;;;5027001;28;20662;-70
2021/11/10 07:47:13;;;;;;;12.33;9.90;;;6.10;99.90;;;;;;5027204;28;20292;-71
2021/11/10 07:49:43;;;;;;;13.17;9.80;;;6.20;99.90;;;;;;5027176;28;20193;-71
2021/11/10 07:52:10;;;;;;;12.10;9.50;;;6.20;99.90;;;;;;5027056;28;20198;-71
2021/11/10 07:54:37;;;;;;;10.37;9.17;;;6.30;99.90;;;;;;5027204;28;20262;-71
2021/11/10 07:57:04;;;;;;;10.63;9.37;;;6.30;99.90;;;;;;5027058;28;20824;-71
2021/11/10 07:59:30;;;;;;;11.20;10.07;;;6.30;99.90;;;;;;5027064;28;20228;-71
2021/11/10 08:01:57;;;;;;;11.30;10.10;;;6.40;99.90;;;;;;5027104;28;20259;-71
2021/11/10 08:04:24;;;;;;;11.27;10.00;;;6.40;99.90;;;;;;5027026;28;20229;-71
2021/11/10 08:06:52;;;;;;;11.17;9.87;;;6.40;99.90;;;;;;5026716;28;20253;-71
2021/11/10 08:09:19;;;;;;;11.97;9.70;;;6.40;99.90;;;;;;5027041;28;20204;-71
2021/11/10 08:11:45;;;;;;;10.93;9.70;;;6.40;99.90;;;;;;5027142;28;20610;-71
2021/11/10 08:14:12;;;;;;;11.00;9.97;;;6.50;99.90;;;;;;5027003;28;20277;-71
2021/11/10 08:16:38;;;;;;;11.73;9.87;;;6.60;99.90;;;;;;5026415;28;20606;-71
2021/11/10 08:19:05;;;;;;;10.70;9.60;;;6.60;99.90;;;;;;5026782;28;20204;-71
2021/11/10 08:21:32;;;;;;;10.90;9.87;;;6.60;99.90;;;;;;5026732;28;20244;-71
2021/11/10 08:24:01;;;;;;;11.67;10.43;;;6.70;99.90;;;;;;5026911;28;20208;-71
2021/11/10 08:26:28;;;;;;;10.77;9.67;;;6.70;99.90;;;;;;5026349;28;20297;-71
2021/11/10 08:28:55;;;;;;;11.33;10.23;;;6.80;99.90;;;;;;5026685;28;20639;-71
2021/11/10 08:31:21;;;;;;;11.50;10.40;;;6.80;99.90;;;;;;5026780;28;20205;-71
2021/11/10 08:33:48;;;;;;;10.63;9.37;;;6.90;99.90;;;;;;5026358;28;20269;-71
2021/11/10 08:36:15;;;;;;;11.07;9.97;;;6.90;99.90;;;;;;5026886;28;20573;-71
2021/11/10 08:38:44;;;;;;;11.63;9.20;;;7.00;99.90;;;;;;5026359;28;20256;-71
2021/11/10 08:41:12;;;;;;;10.93;9.83;;;7.00;99.90;;;;;;5026640;28;20306;-71
2021/11/10 08:43:39;;;;;;;10.77;9.80;;;7.00;99.90;;;;;;5026246;28;20840;-71
2021/11/10 08:46:07;;;;;;;11.70;10.00;;;7.00;99.90;;;;;;5026013;28;20209;-71
2021/11/10 08:48:34;;;;;;;11.37;9.43;;;7.00;99.90;;;;;;5026339;28;20213;-71
2021/11/10 08:51:00;;;;;;;10.77;9.63;;;7.10;99.90;;;;;;5026493;28;20213;-71
2021/11/10 08:53:27;;;;;;;17.47;14.53;;;7.10;99.90;;;;;;5026090;28;20232;-71
2021/11/10 08:55:56;;;;;;;19.00;12.67;;;7.10;99.90;;;;;;5026152;28;20582;-71
2021/11/10 08:58:25;;;;;;;17.13;14.43;;;7.10;99.90;;;;;;5026354;28;20291;-71
2021/11/10 09:00:53;;;;;;;13.40;12.10;;;7.20;99.90;;;;;;5025813;28;20733;-71
2021/11/10 09:03:21;;;;;;;11.33;9.57;;;7.20;99.90;;;;;;5026122;28;21034;-71
2021/11/10 09:05:48;;;;;;;11.53;9.50;;;7.20;99.90;;;;;;5026152;28;20209;-71
2021/11/10 09:08:14;;;;;;;9.90;8.90;;;7.30;99.90;;;;;;5026172;28;20249;-71
2021/11/10 09:10:42;;;;;;;10.97;9.67;;;7.40;99.90;;;;;;5025912;28;20236;-71
2021/11/10 09:13:08;;;;;;;10.07;9.17;;;7.40;99.90;;;;;;5025912;28;20232;-71
2021/11/10 09:15:36;;;;;;;10.43;9.33;;;7.50;99.90;;;;;;5025769;28;20309;-71
2021/11/10 09:18:06;;;;;;;10.23;9.13;;;7.60;99.90;;;;;;5025891;28;20260;-71
2021/11/10 09:20:35;;;;;;;10.50;9.50;;;7.70;99.90;;;;;;5025871;28;20628;-71
2021/11/10 09:23:04;;;;;;;10.17;9.07;;;7.80;99.90;;;;;;5025449;28;20623;-71
2021/11/10 09:25:32;;;;;;;9.73;8.83;;;7.90;99.90;;;;;;5025558;28;20211;-71
2021/11/10 09:28:00;;;;;;;10.37;9.37;;;8.00;99.90;;;;;;5025710;28;20205;-71
2021/11/10 09:30:28;;;;;;;10.17;9.17;;;8.10;99.90;;;;;;5025687;28;20205;-71
2021/11/10 09:32:58;;;;;;;9.47;8.50;;;8.20;99.90;;;;;;5025537;28;20641;-71
2021/11/10 09:35:26;;;;;;;10.47;9.10;;;8.20;99.90;;;;;;5025853;28;20217;-71
2021/11/10 09:37:55;;;;;;;11.17;9.00;;;8.30;99.90;;;;;;5025680;28;20240;-71
2021/11/10 09:40:26;;;;;;;9.67;8.67;;;8.30;99.90;;;;;;5025848;28;20217;-71
2021/11/10 09:42:54;;;;;;;10.70;9.43;;;8.30;99.90;;;;;;5025655;28;20576;-71
2021/11/10 09:45:24;;;;;;;9.83;8.83;;;8.30;99.90;;;;;;5025718;28;20205;-71
2021/11/10 09:47:51;;;;;;;11.10;8.63;;;8.30;99.90;;;;;;5025868;28;20204;-71
2021/11/10 09:50:22;;;;;;;9.57;8.57;;;8.20;99.90;;;;;;5025892;28;20230;-70
2021/11/10 09:52:50;;;;;;;10.00;8.67;;;8.20;99.90;;;;;;5025267;28;20277;-71
2021/11/10 09:55:19;;;;;;;10.07;9.00;;;8.20;99.90;;;;;;5025114;28;20201;-71
2021/11/10 09:57:47;;;;;;;9.40;8.50;;;8.30;99.90;;;;;;5025349;28;20208;-71
2021/11/10 10:00:19;;;;;;;9.97;8.77;;;8.40;99.90;;;;;;5025238;28;20293;-70
2021/11/10 10:02:48;;;;;;;11.23;7.90;;;8.40;99.90;;;;;;5024834;28;20663;-70
2021/11/10 10:05:17;;;;;;;9.50;8.50;;;8.30;99.90;;;;;;5025382;28;20209;-70
2021/11/10 10:07:48;;;;;;;10.03;8.10;;;8.40;99.90;;;;;;5025105;28;20803;-70
2021/11/10 10:10:15;;;;;;;8.67;7.63;;;8.40;99.90;;;;;;5025272;28;20228;-71
2021/11/10 10:12:41;;;;;;;9.60;8.60;;;8.50;99.90;;;;;;5025279;28;20632;-71
2021/11/10 10:15:10;;;;;;;9.07;8.17;;;8.60;99.90;;;;;;5025208;28;20229;-71
2021/11/10 10:17:40;;;;;;;10.20;7.97;;;8.80;99.90;;;;;;5024717;28;20710;-71
2021/11/10 10:20:25;;;;;;;12.90;10.67;;;9.00;99.90;;;;;;5024933;28;20733;-71
2021/11/10 10:22:54;;;;;;;8.10;7.30;;;9.20;99.90;;;;;;5025059;28;20237;-71
2021/11/10 10:25:22;;;;;;;8.60;7.90;;;9.40;99.90;;;;;;5024878;28;20251;-71
2021/11/10 10:27:54;;;;;;;7.80;7.20;;;9.60;99.90;;;;;;5025079;28;20241;-71
2021/11/10 10:30:27;;;;;;;7.57;6.90;;;9.60;99.90;;;;;;5024644;28;20613;-71
2021/11/10 10:32:55;;;;;;;7.60;6.90;;;9.60;99.90;;;;;;5024989;28;20261;-71
2021/11/10 10:35:38;;;;;;;7.50;6.70;;;9.70;99.90;;;;;;5025331;28;20251;-71
2021/11/10 10:38:08;;;;;;;8.33;7.00;;;9.70;99.90;;;;;;5024860;28;20304;-70
2021/11/10 10:40:37;;;;;;;7.83;6.77;;;9.80;99.90;;;;;;5024811;28;20202;-71
2021/11/10 10:43:05;;;;;;;7.87;7.17;;;9.90;99.90;;;;;;5025001;28;20208;-71
2021/11/10 10:45:39;;;;;;;7.83;7.13;;;9.90;99.90;;;;;;5024734;28;20209;-71
2021/11/10 10:48:08;;;;;;;8.17;7.17;;;10.00;99.90;;;;;;5025114;28;20619;-70
2021/11/10 10:50:37;;;;;;;8.77;7.00;;;10.20;99.90;;;;;;5024537;28;20213;-71
2021/11/10 10:53:03;;;;;;;7.50;6.90;;;10.30;99.90;;;;;;5024534;28;20213;-71
2021/11/10 10:55:37;;;;;;;7.30;6.70;;;10.40;99.90;;;;;;5024197;28;20729;-71
2021/11/10 10:58:06;;;;;;;7.37;6.50;;;10.50;99.90;;;;;;5024433;28;20194;-71
2021/11/10 11:00:33;;;;;;;7.43;6.73;;;10.70;99.90;;;;;;5024176;28;20777;-71
2021/11/10 11:03:27;;;;;;;7.97;6.97;;;10.80;99.90;;;;;;5024227;28;20209;-71
2021/11/10 11:05:54;;;;;;;7.37;6.53;;;10.80;99.90;;;;;;5024874;28;20201;-71
2021/11/10 11:08:37;;;;;;;8.10;6.80;;;10.90;99.90;;;;;;5024574;28;20213;-71
2021/11/10 11:11:23;;;;;;;7.10;6.40;;;11.00;99.90;;;;;;5026598;28;20276;-71
2021/11/10 11:13:51;;;;;;;7.30;6.60;;;10.90;99.90;;;;;;5027625;28;20308;-71
2021/11/10 11:16:21;;;;;;;6.47;5.87;;;11.00;99.90;;;;;;5027651;28;20228;-71
2021/11/10 11:18:49;;;;;;;7.20;6.60;;;11.00;99.90;;;;;;5027826;28;20211;-71
2021/11/10 11:21:27;;;;;;;7.47;6.33;;;11.00;99.90;;;;;;5027799;28;20209;-71
2021/11/10 11:23:57;;;;;;;6.90;6.20;;;11.10;99.90;;;;;;5027559;28;20193;-71
2021/11/10 11:26:36;;;;;;;7.47;6.87;;;11.10;99.90;;;;;;5027829;28;20205;-71
2021/11/10 11:29:23;;;;;;;7.20;6.50;;;11.10;99.90;;;;;;5027541;28;20686;-71
2021/11/10 11:31:51;;;;;;;7.23;6.63;;;11.20;99.90;;;;;;5026912;28;20639;-71
2021/11/10 11:34:17;;;;;;;7.60;6.63;;;11.10;99.90;;;;;;5027432;28;20264;-71
2021/11/10 11:36:50;;;;;;;7.80;7.10;;;11.20;99.90;;;;;;5027847;28;20201;-71
2021/11/10 11:39:20;;;;;;;7.43;6.73;;;11.10;99.90;;;;;;5027357;28;20233;-71
2021/11/10 11:41:49;;;;;;;8.13;7.20;;;11.10;99.90;;;;;;5027466;28;20316;-71
2021/11/10 11:44:17;;;;;;;7.73;6.93;;;11.20;99.90;;;;;;5027266;28;20208;-71
2021/11/10 11:46:45;;;;;;;7.80;7.10;;;11.30;99.90;;;;;;5027354;28;20295;-71
2021/11/10 11:49:14;;;;;;;7.53;6.83;;;11.30;99.90;;;;;;5027353;28;20274;-71
2021/11/10 11:51:41;;;;;;;7.23;6.63;;;11.40;99.90;;;;;;5026872;28;20209;-71
2021/11/10 11:54:09;;;;;;;7.37;6.70;;;11.50;99.90;;;;;;5026658;28;20260;-71
2021/11/10 11:56:36;;;;;;;8.13;7.43;;;11.60;99.90;;;;;;5027132;28;20209;-71
2021/11/10 11:59:05;;;;;;;7.57;6.87;;;11.70;99.90;;;;;;5027176;28;20249;-71
2021/11/10 12:01:33;;;;;;;7.47;6.77;;;11.80;99.90;;;;;;5026513;28;20241;-71
2021/11/10 12:04:04;;;;;;;7.57;6.80;;;11.90;99.90;;;;;;5027227;28;20584;-71
2021/11/10 12:06:32;;;;;;;7.73;6.87;;;12.00;99.90;;;;;;5026947;28;20201;-71
2021/11/10 12:09:00;;;;;;;6.73;6.23;;;12.10;99.90;;;;;;5026954;28;20208;-71
2021/11/10 12:11:28;;;;;;;6.83;6.23;;;12.20;99.90;;;;;;5026423;28;20234;-71
2021/11/10 12:14:11;;;;;;;7.20;6.53;;;12.20;99.90;;;;;;5026646;28;20257;-71
2021/11/10 12:16:56;;;;;;;7.40;6.60;;;12.30;99.90;;;;;;5026181;28;20259;-71
2021/11/10 12:19:31;;;;;;;7.47;6.50;;;12.30;99.90;;;;;;5026783;28;20195;-71
2021/11/10 12:22:03;;;;;;;6.73;6.13;;;12.20;99.90;;;;;;5026514;28;20200;-71
2021/11/10 12:24:40;;;;;;;7.20;6.60;;;12.20;99.90;;;;;;5026310;28;20201;-72
2021/11/10 12:27:37;;;;;;;7.53;6.27;;;12.30;99.90;;;;;;5026887;28;20606;-71
2021/11/10 12:30:24;;;;;;;8.50;6.90;;;12.30;99.90;;;;;;5026569;28;20201;-71
2021/11/10 12:32:57;;;;;;;7.87;6.03;;;12.40;99.90;;;;;;5025865;27;20764;-72
2021/11/10 12:35:27;;;;;;;7.27;6.57;;;12.30;99.90;;;;;;5026797;28;20229;-72
2021/11/10 12:37:56;;;;;;;7.23;6.47;;;12.30;99.90;;;;;;5026202;28;20225;-71
2021/11/10 12:40:25;;;;;;;7.07;6.37;;;12.30;99.90;;;;;;5026561;28;20231;-71
2021/11/10 12:42:57;;;;;;;6.50;5.87;;;12.30;99.90;;;;;;5026261;28;20735;-71
2021/11/10 12:45:29;;;;;;;7.33;6.57;;;12.30;99.90;;;;;;5026404;28;20568;-72
2021/11/10 12:47:58;;;;;;;7.67;6.97;;;12.20;99.90;;;;;;5026376;28;20197;-71
2021/11/10 12:50:33;;;;;;;7.17;6.57;;;12.20;99.90;;;;;;5026315;28;20658;-71
2021/11/10 12:53:02;;;;;;;7.40;6.50;;;12.00;99.90;;;;;;5026364;28;20609;-72
2021/11/10 12:55:31;;;;;;;8.03;6.90;;;12.00;99.90;;;;;;5026074;28;20289;-71